sensor_id;sensor_type;location;lat;lon;timestamp;temperature;humidity
6206;DHT22;3136;48.788;9.772;2022-07-11T00:02:14;13.00;57.90
6206;DHT22;3136;48.788;9.772;2022-07-11T00:04:41;13.50;59.50
6206;DHT22;3136;48.788;9.772;2022-07-11T00:07:11;12.90;55.00
6206;DHT22;3136;48.788;9.772;2022-07-11T00:09:36;12.90;58.40
6206;DHT22;3136;48.788;9.772;2022-07-11T00:12:02;12.90;63.70
6206;DHT22;3136;48.788;9.772;2022-07-11T00:14:28;13.00;69.30
6206;DHT22;3136;48.788;9.772;2022-07-11T00:16:54;13.00;64.50
6206;DHT22;3136;48.788;9.772;2022-07-11T00:19:20;13.20;63.00
6206;DHT22;3136;48.788;9.772;2022-07-11T00:21:52;13.00;55.40
6206;DHT22;3136;48.788;9.772;2022-07-11T00:24:18;13.00;51.80
6206;DHT22;3136;48.788;9.772;2022-07-11T00:26:46;13.50;55.70
6206;DHT22;3136;48.788;9.772;2022-07-11T00:29:12;13.00;59.20
6206;DHT22;3136;48.788;9.772;2022-07-11T00:31:37;13.10;61.30
6206;DHT22;3136;48.788;9.772;2022-07-11T00:34:03;13.10;63.50
6206;DHT22;3136;48.788;9.772;2022-07-11T00:36:28;13.90;65.10
6206;DHT22;3136;48.788;9.772;2022-07-11T00:38:54;13.10;57.60
6206;DHT22;3136;48.788;9.772;2022-07-11T00:41:20;13.10;60.10
6206;DHT22;3136;48.788;9.772;2022-07-11T00:43:55;13.30;65.80
6206;DHT22;3136;48.788;9.772;2022-07-11T00:46:22;13.10;65.80
6206;DHT22;3136;48.788;9.772;2022-07-11T00:48:48;13.10;65.50
6206;DHT22;3136;48.788;9.772;2022-07-11T00:51:14;13.00;70.50
6206;DHT22;3136;48.788;9.772;2022-07-11T00:53:41;13.00;78.20
6206;DHT22;3136;48.788;9.772;2022-07-11T00:56:07;13.00;79.80
6206;DHT22;3136;48.788;9.772;2022-07-11T00:58:34;13.20;79.60
6206;DHT22;3136;48.788;9.772;2022-07-11T01:01:01;12.90;85.30
6206;DHT22;3136;48.788;9.772;2022-07-11T01:03:27;12.80;91.80
6206;DHT22;3136;48.788;9.772;2022-07-11T01:05:53;12.80;95.50
6206;DHT22;3136;48.788;9.772;2022-07-11T01:08:18;12.80;95.90
6206;DHT22;3136;48.788;9.772;2022-07-11T01:10:44;12.80;97.10
6206;DHT22;3136;48.788;9.772;2022-07-11T01:13:10;12.70;99.90
6206;DHT22;3136;48.788;9.772;2022-07-11T01:15:36;12.70;99.90
6206;DHT22;3136;48.788;9.772;2022-07-11T01:18:02;13.00;99.90
6206;DHT22;3136;48.788;9.772;2022-07-11T01:20:28;12.70;99.90
6206;DHT22;3136;48.788;9.772;2022-07-11T01:22:59;13.30;99.90
6206;DHT22;3136;48.788;9.772;2022-07-11T01:25:25;12.60;99.90
6206;DHT22;3136;48.788;9.772;2022-07-11T01:28:01;12.70;99.90
6206;DHT22;3136;48.788;9.772;2022-07-11T01:30:28;12.70;99.90
6206;DHT22;3136;48.788;9.772;2022-07-11T01:32:55;12.60;99.90
6206;DHT22;3136;48.788;9.772;2022-07-11T01:35:21;13.80;99.90
6206;DHT22;3136;48.788;9.772;2022-07-11T01:37:47;13.70;99.90
6206;DHT22;3136;48.788;9.772;2022-07-11T01:40:15;12.60;99.90
6206;DHT22;3136;48.788;9.772;2022-07-11T01:42:41;12.90;99.90
6206;DHT22;3136;48.788;9.772;2022-07-11T01:45:08;12.80;99.90
6206;DHT22;3136;48.788;9.772;2022-07-11T01:47:34;12.60;99.90
6206;DHT22;3136;48.788;9.772;2022-07-11T01:50:00;12.60;99.90
6206;DHT22;3136;48.788;9.772;2022-07-11T01:52:25;12.60;99.90
6206;DHT22;3136;48.788;9.772;2022-07-11T01:54:52;12.60;99.90
6206;DHT22;3136;48.788;9.772;2022-07-11T01:57:17;12.80;99.90
6206;DHT22;3136;48.788;9.772;2022-07-11T01:59:43;12.60;99.90
6206;DHT22;3136;48.788;9.772;2022-07-11T02:02:08;12.60;99.90
6206;DHT22;3136;48.788;9.772;2022-07-11T02:04:34;13.00;99.90
6206;DHT22;3136;48.788;9.772;2022-07-11T02:07:00;12.60;99.90
6206;DHT22;3136;48.788;9.772;2022-07-11T02:09:25;12.70;99.90
6206;DHT22;3136;48.788;9.772;2022-07-11T02:11:51;12.70;99.90
6206;DHT22;3136;48.788;9.772;2022-07-11T02:14:17;14.00;99.90
6206;DHT22;3136;48.788;9.772;2022-07-11T02:16:42;12.60;99.90
6206;DHT22;3136;48.788;9.772;2022-07-11T02:19:08;12.80;99.90
6206;DHT22;3136;48.788;9.772;2022-07-11T02:21:36;12.60;99.90
6206;DHT22;3136;48.788;9.772;2022-07-11T02:24:02;12.80;99.90
6206;DHT22;3136;48.788;9.772;2022-07-11T02:26:27;12.60;99.90
6206;DHT22;3136;48.788;9.772;2022-07-11T02:28:53;12.60;99.90
6206;DHT22;3136;48.788;9.772;2022-07-11T02:31:19;13.00;99.90
6206;DHT22;3136;48.788;9.772;2022-07-11T02:33:45;12.60;99.90
6206;DHT22;3136;48.788;9.772;2022-07-11T02:36:10;12.60;99.90
6206;DHT22;3136;48.788;9.772;2022-07-11T02:38:37;13.20;99.90
6206;DHT22;3136;48.788;9.772;2022-07-11T02:41:02;12.60;99.90
6206;DHT22;3136;48.788;9.772;2022-07-11T02:43:28;12.60;99.90
6206;DHT22;3136;48.788;9.772;2022-07-11T02:45:55;12.60;99.90
6206;DHT22;3136;48.788;9.772;2022-07-11T02:48:21;12.70;99.90
6206;DHT22;3136;48.788;9.772;2022-07-11T02:50:47;12.90;99.90
6206;DHT22;3136;48.788;9.772;2022-07-11T02:53:12;12.70;99.90
6206;DHT22;3136;48.788;9.772;2022-07-11T02:55:38;11.30;99.90
6206;DHT22;3136;48.788;9.772;2022-07-11T02:58:03;12.70;99.90
6206;DHT22;3136;48.788;9.772;2022-07-11T03:00:29;12.70;99.90
6206;DHT22;3136;48.788;9.772;2022-07-11T03:02:55;12.70;99.90
6206;DHT22;3136;48.788;9.772;2022-07-11T03:05:21;12.80;99.90
6206;DHT22;3136;48.788;9.772;2022-07-11T03:07:46;12.70;99.90
6206;DHT22;3136;48.788;9.772;2022-07-11T03:10:12;12.90;99.90
6206;DHT22;3136;48.788;9.772;2022-07-11T03:12:38;12.80;99.90
6206;DHT22;3136;48.788;9.772;2022-07-11T03:15:05;12.80;99.90
6206;DHT22;3136;48.788;9.772;2022-07-11T03:17:31;12.80;99.90
6206;DHT22;3136;48.788;9.772;2022-07-11T03:19:57;12.90;99.90
6206;DHT22;3136;48.788;9.772;2022-07-11T03:22:22;13.20;99.90
6206;DHT22;3136;48.788;9.772;2022-07-11T03:24:48;12.90;99.90
6206;DHT22;3136;48.788;9.772;2022-07-11T03:27:16;12.90;99.90
6206;DHT22;3136;48.788;9.772;2022-07-11T03:29:42;12.90;99.90
6206;DHT22;3136;48.788;9.772;2022-07-11T03:32:08;12.90;99.90
6206;DHT22;3136;48.788;9.772;2022-07-11T03:34:34;13.00;99.90
6206;DHT22;3136;48.788;9.772;2022-07-11T03:37:00;13.40;99.90
6206;DHT22;3136;48.788;9.772;2022-07-11T03:39:26;12.90;99.90
6206;DHT22;3136;48.788;9.772;2022-07-11T03:41:52;13.00;99.90
6206;DHT22;3136;48.788;9.772;2022-07-11T03:44:18;13.00;99.90
6206;DHT22;3136;48.788;9.772;2022-07-11T03:46:44;13.00;99.90
6206;DHT22;3136;48.788;9.772;2022-07-11T03:49:10;13.20;99.90
6206;DHT22;3136;48.788;9.772;2022-07-11T03:51:36;13.10;99.90
6206;DHT22;3136;48.788;9.772;2022-07-11T03:54:02;13.10;99.90
6206;DHT22;3136;48.788;9.772;2022-07-11T03:56:27;13.10;99.90
6206;DHT22;3136;48.788;9.772;2022-07-11T03:58:53;13.20;99.90
6206;DHT22;3136;48.788;9.772;2022-07-11T04:01:19;13.00;99.90
6206;DHT22;3136;48.788;9.772;2022-07-11T04:03:47;13.10;99.90
6206;DHT22;3136;48.788;9.772;2022-07-11T04:06:13;13.10;99.90
6206;DHT22;3136;48.788;9.772;2022-07-11T04:08:39;13.40;99.90
6206;DHT22;3136;48.788;9.772;2022-07-11T04:11:05;13.80;99.90
6206;DHT22;3136;48.788;9.772;2022-07-11T04:13:31;13.30;99.90
6206;DHT22;3136;48.788;9.772;2022-07-11T04:15:56;13.30;99.90
6206;DHT22;3136;48.788;9.772;2022-07-11T04:18:22;13.80;99.90
6206;DHT22;3136;48.788;9.772;2022-07-11T04:20:48;13.30;99.90
6206;DHT22;3136;48.788;9.772;2022-07-11T04:23:15;13.30;99.90
6206;DHT22;3136;48.788;9.772;2022-07-11T04:25:41;13.30;99.90
6206;DHT22;3136;48.788;9.772;2022-07-11T04:28:06;13.40;99.90
6206;DHT22;3136;48.788;9.772;2022-07-11T04:30:32;13.50;99.90
6206;DHT22;3136;48.788;9.772;2022-07-11T04:32:58;13.50;99.90
6206;DHT22;3136;48.788;9.772;2022-07-11T04:35:24;13.50;99.90
6206;DHT22;3136;48.788;9.772;2022-07-11T04:37:52;14.90;99.90
6206;DHT22;3136;48.788;9.772;2022-07-11T04:40:17;13.60;99.90
6206;DHT22;3136;48.788;9.772;2022-07-11T04:42:43;13.60;99.90
6206;DHT22;3136;48.788;9.772;2022-07-11T04:45:09;13.70;99.90
6206;DHT22;3136;48.788;9.772;2022-07-11T04:47:35;13.70;99.90
6206;DHT22;3136;48.788;9.772;2022-07-11T04:50:00;13.80;99.90
6206;DHT22;3136;48.788;9.772;2022-07-11T04:52:26;13.90;98.30
6206;DHT22;3136;48.788;9.772;2022-07-11T04:54:52;13.80;91.80
6206;DHT22;3136;48.788;9.772;2022-07-11T04:57:18;13.90;82.30
6206;DHT22;3136;48.788;9.772;2022-07-11T04:59:44;13.90;68.50
6206;DHT22;3136;48.788;9.772;2022-07-11T05:02:10;14.00;68.60
6206;DHT22;3136;48.788;9.772;2022-07-11T05:04:35;14.20;73.30
6206;DHT22;3136;48.788;9.772;2022-07-11T05:07:01;14.10;78.90
6206;DHT22;3136;48.788;9.772;2022-07-11T05:09:27;14.10;73.50
6206;DHT22;3136;48.788;9.772;2022-07-11T05:11:53;14.20;58.50
6206;DHT22;3136;48.788;9.772;2022-07-11T05:14:19;14.30;56.40
6206;DHT22;3136;48.788;9.772;2022-07-11T05:16:44;14.30;40.10
6206;DHT22;3136;48.788;9.772;2022-07-11T05:19:10;14.30;38.10
6206;DHT22;3136;48.788;9.772;2022-07-11T05:21:35;14.30;46.50
6206;DHT22;3136;48.788;9.772;2022-07-11T05:24:01;14.40;49.40
6206;DHT22;3136;48.788;9.772;2022-07-11T05:26:27;14.50;43.90
6206;DHT22;3136;48.788;9.772;2022-07-11T05:28:52;14.60;28.40
6206;DHT22;3136;48.788;9.772;2022-07-11T05:31:18;14.60;24.50
6206;DHT22;3136;48.788;9.772;2022-07-11T05:33:44;14.70;49.20
6206;DHT22;3136;48.788;9.772;2022-07-11T05:36:09;14.80;18.60
6206;DHT22;3136;48.788;9.772;2022-07-11T05:38:35;14.80;16.90
6206;DHT22;3136;48.788;9.772;2022-07-11T05:41:00;14.90;16.30
6206;DHT22;3136;48.788;9.772;2022-07-11T05:43:27;14.90;11.80
6206;DHT22;3136;48.788;9.772;2022-07-11T05:45:54;15.00;12.40
6206;DHT22;3136;48.788;9.772;2022-07-11T05:48:19;15.10;13.60
6206;DHT22;3136;48.788;9.772;2022-07-11T05:50:45;15.20;11.10
6206;DHT22;3136;48.788;9.772;2022-07-11T05:53:10;15.30;1.00
6206;DHT22;3136;48.788;9.772;2022-07-11T05:55:36;15.50;1.00
6206;DHT22;3136;48.788;9.772;2022-07-11T05:58:02;15.50;1.00
6206;DHT22;3136;48.788;9.772;2022-07-11T06:00:28;15.60;1.00
6206;DHT22;3136;48.788;9.772;2022-07-11T06:02:54;15.60;1.00
6206;DHT22;3136;48.788;9.772;2022-07-11T06:05:20;15.80;1.00
6206;DHT22;3136;48.788;9.772;2022-07-11T06:07:45;15.80;1.00
6206;DHT22;3136;48.788;9.772;2022-07-11T06:10:29;15.90;1.00
6206;DHT22;3136;48.788;9.772;2022-07-11T06:12:57;15.90;1.00
6206;DHT22;3136;48.788;9.772;2022-07-11T06:15:23;16.00;1.00
6206;DHT22;3136;48.788;9.772;2022-07-11T06:17:49;16.00;1.00
6206;DHT22;3136;48.788;9.772;2022-07-11T06:20:14;16.10;1.00
6206;DHT22;3136;48.788;9.772;2022-07-11T06:22:40;15.20;1.00
6206;DHT22;3136;48.788;9.772;2022-07-11T06:25:05;16.00;1.00
6206;DHT22;3136;48.788;9.772;2022-07-11T06:27:31;16.20;1.00
6206;DHT22;3136;48.788;9.772;2022-07-11T06:29:57;16.30;1.00
6206;DHT22;3136;48.788;9.772;2022-07-11T06:32:22;16.30;1.00
6206;DHT22;3136;48.788;9.772;2022-07-11T06:34:49;16.40;1.00
6206;DHT22;3136;48.788;9.772;2022-07-11T06:37:15;16.50;1.00
6206;DHT22;3136;48.788;9.772;2022-07-11T06:39:40;16.50;1.00
6206;DHT22;3136;48.788;9.772;2022-07-11T06:42:06;16.60;1.00
6206;DHT22;3136;48.788;9.772;2022-07-11T06:44:32;16.70;1.00
6206;DHT22;3136;48.788;9.772;2022-07-11T06:46:57;16.60;1.00
6206;DHT22;3136;48.788;9.772;2022-07-11T06:49:23;16.70;1.00
6206;DHT22;3136;48.788;9.772;2022-07-11T06:51:49;16.70;1.00
6206;DHT22;3136;48.788;9.772;2022-07-11T06:54:15;16.80;1.00
6206;DHT22;3136;48.788;9.772;2022-07-11T06:56:40;16.90;1.00
6206;DHT22;3136;48.788;9.772;2022-07-11T06:59:06;17.00;1.00
6206;DHT22;3136;48.788;9.772;2022-07-11T07:01:31;17.10;1.00
6206;DHT22;3136;48.788;9.772;2022-07-11T07:03:57;17.10;1.00
6206;DHT22;3136;48.788;9.772;2022-07-11T07:06:23;17.20;1.00
6206;DHT22;3136;48.788;9.772;2022-07-11T07:08:48;17.30;1.00
6206;DHT22;3136;48.788;9.772;2022-07-11T07:11:14;17.40;1.00
6206;DHT22;3136;48.788;9.772;2022-07-11T07:13:39;17.40;1.00
6206;DHT22;3136;48.788;9.772;2022-07-11T07:16:05;17.50;1.00
6206;DHT22;3136;48.788;9.772;2022-07-11T07:18:32;17.60;1.00
6206;DHT22;3136;48.788;9.772;2022-07-11T07:20:58;17.70;1.00
6206;DHT22;3136;48.788;9.772;2022-07-11T07:23:24;17.80;1.00
6206;DHT22;3136;48.788;9.772;2022-07-11T07:25:50;17.90;1.00
6206;DHT22;3136;48.788;9.772;2022-07-11T07:28:16;17.90;1.00
6206;DHT22;3136;48.788;9.772;2022-07-11T07:30:42;17.90;1.00
6206;DHT22;3136;48.788;9.772;2022-07-11T07:33:07;18.20;1.00
6206;DHT22;3136;48.788;9.772;2022-07-11T07:35:33;18.00;1.00
6206;DHT22;3136;48.788;9.772;2022-07-11T07:37:59;18.10;1.00
6206;DHT22;3136;48.788;9.772;2022-07-11T07:40:26;18.10;1.00
6206;DHT22;3136;48.788;9.772;2022-07-11T07:42:52;18.20;1.00
6206;DHT22;3136;48.788;9.772;2022-07-11T07:45:17;18.20;1.00
6206;DHT22;3136;48.788;9.772;2022-07-11T07:47:43;18.30;1.00
6206;DHT22;3136;48.788;9.772;2022-07-11T07:50:09;18.30;1.00
6206;DHT22;3136;48.788;9.772;2022-07-11T07:52:35;18.50;1.00
6206;DHT22;3136;48.788;9.772;2022-07-11T07:55:00;18.70;1.00
6206;DHT22;3136;48.788;9.772;2022-07-11T07:57:26;20.20;1.00
6206;DHT22;3136;48.788;9.772;2022-07-11T07:59:51;18.70;1.00
6206;DHT22;3136;48.788;9.772;2022-07-11T08:02:37;18.80;1.00
6206;DHT22;3136;48.788;9.772;2022-07-11T08:05:03;18.70;1.00
6206;DHT22;3136;48.788;9.772;2022-07-11T08:07:29;18.90;1.00
6206;DHT22;3136;48.788;9.772;2022-07-11T08:09:54;19.00;1.00
6206;DHT22;3136;48.788;9.772;2022-07-11T08:12:20;19.00;1.00
6206;DHT22;3136;48.788;9.772;2022-07-11T08:14:45;19.00;1.00
6206;DHT22;3136;48.788;9.772;2022-07-11T08:17:11;19.00;1.00
6206;DHT22;3136;48.788;9.772;2022-07-11T08:19:36;19.20;1.00
6206;DHT22;3136;48.788;9.772;2022-07-11T08:22:02;19.30;1.00
6206;DHT22;3136;48.788;9.772;2022-07-11T08:24:27;19.50;1.00
6206;DHT22;3136;48.788;9.772;2022-07-11T08:26:53;19.50;1.00
6206;DHT22;3136;48.788;9.772;2022-07-11T08:29:18;19.50;1.00
6206;DHT22;3136;48.788;9.772;2022-07-11T08:31:44;19.50;1.00
6206;DHT22;3136;48.788;9.772;2022-07-11T08:34:09;19.50;1.00
6206;DHT22;3136;48.788;9.772;2022-07-11T08:36:35;19.50;1.00
6206;DHT22;3136;48.788;9.772;2022-07-11T08:39:03;19.40;1.00
6206;DHT22;3136;48.788;9.772;2022-07-11T08:41:28;19.40;1.00
6206;DHT22;3136;48.788;9.772;2022-07-11T08:43:57;19.40;1.00
6206;DHT22;3136;48.788;9.772;2022-07-11T08:46:24;19.60;1.00
6206;DHT22;3136;48.788;9.772;2022-07-11T08:48:51;19.80;1.00
6206;DHT22;3136;48.788;9.772;2022-07-11T08:51:17;20.00;1.00
6206;DHT22;3136;48.788;9.772;2022-07-11T08:53:43;20.20;1.00
6206;DHT22;3136;48.788;9.772;2022-07-11T08:56:12;20.20;1.00
6206;DHT22;3136;48.788;9.772;2022-07-11T08:58:46;20.20;1.00
6206;DHT22;3136;48.788;9.772;2022-07-11T09:01:15;20.20;1.00
6206;DHT22;3136;48.788;9.772;2022-07-11T09:03:41;20.20;1.00
6206;DHT22;3136;48.788;9.772;2022-07-11T09:06:07;20.20;1.00
6206;DHT22;3136;48.788;9.772;2022-07-11T09:08:34;20.30;1.00
6206;DHT22;3136;48.788;9.772;2022-07-11T09:11:00;20.50;1.00
6206;DHT22;3136;48.788;9.772;2022-07-11T09:13:29;20.70;1.00
6206;DHT22;3136;48.788;9.772;2022-07-11T09:16:05;20.70;1.00
6206;DHT22;3136;48.788;9.772;2022-07-11T09:18:39;20.80;1.00
6206;DHT22;3136;48.788;9.772;2022-07-11T09:21:10;20.90;1.00
6206;DHT22;3136;48.788;9.772;2022-07-11T09:23:56;20.80;1.00
6206;DHT22;3136;48.788;9.772;2022-07-11T09:26:42;20.70;1.00
6206;DHT22;3136;48.788;9.772;2022-07-11T09:29:10;20.70;1.00
6206;DHT22;3136;48.788;9.772;2022-07-11T09:31:40;20.70;1.00
6206;DHT22;3136;48.788;9.772;2022-07-11T09:34:14;20.80;1.00
6206;DHT22;3136;48.788;9.772;2022-07-11T09:36:48;20.90;1.00
6206;DHT22;3136;48.788;9.772;2022-07-11T09:39:26;21.00;1.00
6206;DHT22;3136;48.788;9.772;2022-07-11T09:41:53;21.20;1.00
6206;DHT22;3136;48.788;9.772;2022-07-11T09:44:27;21.10;1.00
6206;DHT22;3136;48.788;9.772;2022-07-11T09:46:55;21.20;1.00
6206;DHT22;3136;48.788;9.772;2022-07-11T09:49:32;21.10;1.00
6206;DHT22;3136;48.788;9.772;2022-07-11T09:52:16;21.10;1.00
6206;DHT22;3136;48.788;9.772;2022-07-11T09:55:00;21.10;1.00
6206;DHT22;3136;48.788;9.772;2022-07-11T09:59:55;20.70;1.00
6206;DHT22;3136;48.788;9.772;2022-07-11T10:02:21;20.40;1.00
6206;DHT22;3136;48.788;9.772;2022-07-11T10:04:48;20.30;1.00
6206;DHT22;3136;48.788;9.772;2022-07-11T10:07:14;20.20;1.00
6206;DHT22;3136;48.788;9.772;2022-07-11T10:09:39;20.00;1.00
6206;DHT22;3136;48.788;9.772;2022-07-11T10:12:05;19.90;1.00
6206;DHT22;3136;48.788;9.772;2022-07-11T10:14:31;19.80;1.00
6206;DHT22;3136;48.788;9.772;2022-07-11T10:17:07;19.80;1.00
6206;DHT22;3136;48.788;9.772;2022-07-11T10:19:45;19.70;1.00
6206;DHT22;3136;48.788;9.772;2022-07-11T10:25:04;19.60;1.00
6206;DHT22;3136;48.788;9.772;2022-07-11T10:30:54;19.70;1.00
6206;DHT22;3136;48.788;9.772;2022-07-11T10:33:25;19.90;1.00
6206;DHT22;3136;48.788;9.772;2022-07-11T10:35:51;20.10;1.00
6206;DHT22;3136;48.788;9.772;2022-07-11T10:38:18;20.30;1.00
6206;DHT22;3136;48.788;9.772;2022-07-11T10:43:10;20.50;1.00
6206;DHT22;3136;48.788;9.772;2022-07-11T10:46:09;20.70;1.00
6206;DHT22;3136;48.788;9.772;2022-07-11T10:54:32;21.30;1.00
6206;DHT22;3136;48.788;9.772;2022-07-11T10:57:28;21.20;1.00
6206;DHT22;3136;48.788;9.772;2022-07-11T11:00:07;21.20;1.00
6206;DHT22;3136;48.788;9.772;2022-07-11T11:03:00;21.30;1.00
6206;DHT22;3136;48.788;9.772;2022-07-11T11:10:59;21.40;1.00
6206;DHT22;3136;48.788;9.772;2022-07-11T11:13:25;21.40;1.00
6206;DHT22;3136;48.788;9.772;2022-07-11T11:15:53;21.60;1.00
6206;DHT22;3136;48.788;9.772;2022-07-11T11:23:37;22.40;1.00
6206;DHT22;3136;48.788;9.772;2022-07-11T11:29:00;23.20;1.00
6206;DHT22;3136;48.788;9.772;2022-07-11T11:31:28;23.80;1.00
6206;DHT22;3136;48.788;9.772;2022-07-11T11:33:57;23.80;1.00
6206;DHT22;3136;48.788;9.772;2022-07-11T11:36:25;23.90;1.00
6206;DHT22;3136;48.788;9.772;2022-07-11T11:38:51;23.80;1.00
6206;DHT22;3136;48.788;9.772;2022-07-11T11:41:24;23.50;1.00
6206;DHT22;3136;48.788;9.772;2022-07-11T11:43:51;23.20;1.00
6206;DHT22;3136;48.788;9.772;2022-07-11T11:46:17;22.70;1.00
6206;DHT22;3136;48.788;9.772;2022-07-11T11:48:43;22.40;1.00
6206;DHT22;3136;48.788;9.772;2022-07-11T11:51:13;22.30;1.00
6206;DHT22;3136;48.788;9.772;2022-07-11T11:53:47;22.30;1.00
6206;DHT22;3136;48.788;9.772;2022-07-11T11:58:43;22.20;1.00
6206;DHT22;3136;48.788;9.772;2022-07-11T12:01:12;22.20;1.00
6206;DHT22;3136;48.788;9.772;2022-07-11T12:06:16;22.40;1.00
6206;DHT22;3136;48.788;9.772;2022-07-11T12:08:42;22.50;1.00
6206;DHT22;3136;48.788;9.772;2022-07-11T12:11:14;22.60;1.00
6206;DHT22;3136;48.788;9.772;2022-07-11T12:13:41;22.60;1.00
6206;DHT22;3136;48.788;9.772;2022-07-11T12:16:17;22.80;1.00
6206;DHT22;3136;48.788;9.772;2022-07-11T12:19:02;23.00;1.00
6206;DHT22;3136;48.788;9.772;2022-07-11T12:21:29;23.40;1.00
6206;DHT22;3136;48.788;9.772;2022-07-11T12:24:05;23.50;1.00
6206;DHT22;3136;48.788;9.772;2022-07-11T12:26:36;23.70;1.00
6206;DHT22;3136;48.788;9.772;2022-07-11T12:31:50;23.80;1.00
6206;DHT22;3136;48.788;9.772;2022-07-11T12:34:21;23.90;1.00
6206;DHT22;3136;48.788;9.772;2022-07-11T12:36:48;23.70;1.00
6206;DHT22;3136;48.788;9.772;2022-07-11T12:39:29;23.60;1.00
6206;DHT22;3136;48.788;9.772;2022-07-11T12:41:56;23.50;1.00
6206;DHT22;3136;48.788;9.772;2022-07-11T12:44:27;23.50;1.00
6206;DHT22;3136;48.788;9.772;2022-07-11T12:47:12;23.50;1.00
6206;DHT22;3136;48.788;9.772;2022-07-11T12:49:39;23.90;1.00
6206;DHT22;3136;48.788;9.772;2022-07-11T12:52:10;24.10;1.00
6206;DHT22;3136;48.788;9.772;2022-07-11T12:54:36;24.40;1.00
6206;DHT22;3136;48.788;9.772;2022-07-11T12:57:02;24.60;1.00
6206;DHT22;3136;48.788;9.772;2022-07-11T12:59:30;24.40;1.00
6206;DHT22;3136;48.788;9.772;2022-07-11T13:02:03;24.00;1.00
6206;DHT22;3136;48.788;9.772;2022-07-11T13:04:49;23.50;1.00
6206;DHT22;3136;48.788;9.772;2022-07-11T13:10:08;22.80;1.00
6206;DHT22;3136;48.788;9.772;2022-07-11T13:12:35;22.50;1.00
6206;DHT22;3136;48.788;9.772;2022-07-11T13:15:03;22.30;1.00
6206;DHT22;3136;48.788;9.772;2022-07-11T13:17:48;22.10;1.00
6206;DHT22;3136;48.788;9.772;2022-07-11T13:20:16;21.80;1.00
6206;DHT22;3136;48.788;9.772;2022-07-11T13:22:43;21.60;1.00
6206;DHT22;3136;48.788;9.772;2022-07-11T13:25:09;21.50;1.00
6206;DHT22;3136;48.788;9.772;2022-07-11T13:27:39;21.50;1.00
6206;DHT22;3136;48.788;9.772;2022-07-11T13:30:08;21.60;1.00
6206;DHT22;3136;48.788;9.772;2022-07-11T13:32:39;21.60;1.00
6206;DHT22;3136;48.788;9.772;2022-07-11T13:35:05;21.70;1.00
6206;DHT22;3136;48.788;9.772;2022-07-11T13:37:32;21.80;1.00
6206;DHT22;3136;48.788;9.772;2022-07-11T13:40:04;21.90;1.00
6206;DHT22;3136;48.788;9.772;2022-07-11T13:42:30;22.00;1.00
6206;DHT22;3136;48.788;9.772;2022-07-11T13:45:01;22.10;1.00
6206;DHT22;3136;48.788;9.772;2022-07-11T13:47:27;22.20;1.00
6206;DHT22;3136;48.788;9.772;2022-07-11T13:49:52;22.30;1.00
6206;DHT22;3136;48.788;9.772;2022-07-11T13:52:18;22.30;1.00
6206;DHT22;3136;48.788;9.772;2022-07-11T13:54:44;22.40;1.00
6206;DHT22;3136;48.788;9.772;2022-07-11T13:57:09;22.60;1.00
6206;DHT22;3136;48.788;9.772;2022-07-11T13:59:35;22.60;1.00
6206;DHT22;3136;48.788;9.772;2022-07-11T14:02:02;22.80;1.00
6206;DHT22;3136;48.788;9.772;2022-07-11T14:04:28;22.90;1.00
6206;DHT22;3136;48.788;9.772;2022-07-11T14:06:54;22.90;1.00
6206;DHT22;3136;48.788;9.772;2022-07-11T14:09:19;23.00;1.00
6206;DHT22;3136;48.788;9.772;2022-07-11T14:11:45;23.10;1.00
6206;DHT22;3136;48.788;9.772;2022-07-11T14:14:11;23.20;1.00
6206;DHT22;3136;48.788;9.772;2022-07-11T14:16:37;23.10;1.00
6206;DHT22;3136;48.788;9.772;2022-07-11T14:19:02;23.10;1.00
6206;DHT22;3136;48.788;9.772;2022-07-11T14:21:39;23.00;1.00
6206;DHT22;3136;48.788;9.772;2022-07-11T14:24:05;22.90;1.00
6206;DHT22;3136;48.788;9.772;2022-07-11T14:26:32;22.70;1.00
6206;DHT22;3136;48.788;9.772;2022-07-11T14:28:58;22.60;1.00
6206;DHT22;3136;48.788;9.772;2022-07-11T14:31:24;22.50;1.00
6206;DHT22;3136;48.788;9.772;2022-07-11T14:33:50;22.40;1.00
6206;DHT22;3136;48.788;9.772;2022-07-11T14:36:18;22.40;1.00
6206;DHT22;3136;48.788;9.772;2022-07-11T14:38:43;22.50;1.00
6206;DHT22;3136;48.788;9.772;2022-07-11T14:41:14;22.60;1.00
6206;DHT22;3136;48.788;9.772;2022-07-11T14:43:41;22.50;1.00
6206;DHT22;3136;48.788;9.772;2022-07-11T14:46:06;22.50;1.00
6206;DHT22;3136;48.788;9.772;2022-07-11T14:48:33;22.60;1.00
6206;DHT22;3136;48.788;9.772;2022-07-11T14:50:59;22.70;1.00
6206;DHT22;3136;48.788;9.772;2022-07-11T14:53:25;22.70;1.00
6206;DHT22;3136;48.788;9.772;2022-07-11T14:55:52;22.80;1.00
6206;DHT22;3136;48.788;9.772;2022-07-11T14:58:18;22.90;1.00
6206;DHT22;3136;48.788;9.772;2022-07-11T15:00:43;22.90;1.00
6206;DHT22;3136;48.788;9.772;2022-07-11T15:03:10;22.90;1.00
6206;DHT22;3136;48.788;9.772;2022-07-11T15:05:54;22.90;1.00
6206;DHT22;3136;48.788;9.772;2022-07-11T15:08:20;22.80;1.00
6206;DHT22;3136;48.788;9.772;2022-07-11T15:11:04;22.90;1.00
6206;DHT22;3136;48.788;9.772;2022-07-11T15:14:09;22.90;1.00
6206;DHT22;3136;48.788;9.772;2022-07-11T15:16:35;23.10;1.00
6206;DHT22;3136;48.788;9.772;2022-07-11T15:19:04;23.10;1.00
6206;DHT22;3136;48.788;9.772;2022-07-11T15:21:31;23.20;1.00
6206;DHT22;3136;48.788;9.772;2022-07-11T15:23:56;23.20;1.00
6206;DHT22;3136;48.788;9.772;2022-07-11T15:26:22;23.20;1.00
6206;DHT22;3136;48.788;9.772;2022-07-11T15:28:49;23.20;1.00
6206;DHT22;3136;48.788;9.772;2022-07-11T15:31:15;23.20;1.00
6206;DHT22;3136;48.788;9.772;2022-07-11T15:33:41;23.10;1.00
6206;DHT22;3136;48.788;9.772;2022-07-11T15:36:11;23.00;1.00
6206;DHT22;3136;48.788;9.772;2022-07-11T15:38:37;22.90;1.00
6206;DHT22;3136;48.788;9.772;2022-07-11T15:41:02;23.00;1.00
6206;DHT22;3136;48.788;9.772;2022-07-11T15:43:29;23.00;1.00
6206;DHT22;3136;48.788;9.772;2022-07-11T15:45:54;23.00;1.00
6206;DHT22;3136;48.788;9.772;2022-07-11T15:48:20;23.10;1.00
6206;DHT22;3136;48.788;9.772;2022-07-11T15:50:46;23.20;1.00
6206;DHT22;3136;48.788;9.772;2022-07-11T15:53:12;23.20;1.00
6206;DHT22;3136;48.788;9.772;2022-07-11T15:55:38;23.20;1.00
6206;DHT22;3136;48.788;9.772;2022-07-11T15:58:04;23.20;1.00
6206;DHT22;3136;48.788;9.772;2022-07-11T16:00:30;23.10;1.00
6206;DHT22;3136;48.788;9.772;2022-07-11T16:02:55;23.10;1.00
6206;DHT22;3136;48.788;9.772;2022-07-11T16:05:21;23.20;1.00
6206;DHT22;3136;48.788;9.772;2022-07-11T16:07:47;23.10;1.00
6206;DHT22;3136;48.788;9.772;2022-07-11T16:10:13;23.00;1.00
6206;DHT22;3136;48.788;9.772;2022-07-11T16:12:39;23.00;1.00
6206;DHT22;3136;48.788;9.772;2022-07-11T16:15:04;23.00;1.00
6206;DHT22;3136;48.788;9.772;2022-07-11T16:17:31;23.10;1.00
6206;DHT22;3136;48.788;9.772;2022-07-11T16:19:57;23.10;1.00
6206;DHT22;3136;48.788;9.772;2022-07-11T16:22:23;23.10;1.00
6206;DHT22;3136;48.788;9.772;2022-07-11T16:24:49;23.10;1.00
6206;DHT22;3136;48.788;9.772;2022-07-11T16:27:14;23.00;1.00
6206;DHT22;3136;48.788;9.772;2022-07-11T16:29:40;22.90;1.00
6206;DHT22;3136;48.788;9.772;2022-07-11T16:32:06;22.80;1.00
6206;DHT22;3136;48.788;9.772;2022-07-11T16:34:32;22.80;1.00
6206;DHT22;3136;48.788;9.772;2022-07-11T16:36:58;22.80;1.00
6206;DHT22;3136;48.788;9.772;2022-07-11T16:39:23;22.80;1.00
6206;DHT22;3136;48.788;9.772;2022-07-11T16:42:08;22.90;1.00
6206;DHT22;3136;48.788;9.772;2022-07-11T16:44:52;22.90;1.00
6206;DHT22;3136;48.788;9.772;2022-07-11T16:47:17;23.10;1.00
6206;DHT22;3136;48.788;9.772;2022-07-11T16:49:43;23.00;1.00
6206;DHT22;3136;48.788;9.772;2022-07-11T16:52:09;23.00;1.00
6206;DHT22;3136;48.788;9.772;2022-07-11T16:54:34;22.90;1.00
6206;DHT22;3136;48.788;9.772;2022-07-11T16:57:03;22.70;1.00